Welcome to La Porte Aviation Services!

An aviation adventure awaits

Current Weather Conditions

Available data for KPPO from the past 2 hours
LA PORTE, IN
Metar
KPPO 211955Z AUTO 31015G22KT 10SM CLR 24/15 A2998 RMK AO2 T02380148

19:55 UTC

Wind: 310° 15kt

Visibility: 10 SM

Sky:

Temp: 24 deg C / 75.2 deg F

Dewpoint: 15 deg C / 59 deg F

Pressure: 29.98 inHg

Pireps (8)
BIV UA /OV PMM/TM 2003/FL390/TP B763/TB CONS LGT CHOP
BIV UA /OV PMM090010/TM 2002/FL370/TP B738/TB CONS LGT CHOP
RMY UA /OV LFD257020/TM 1929/FL350/TP B737/WX 40+/TA M18/WV 262077/TB LIGHT -MOD TURB/IC NEG
ARP UAL1453 4132N 08819W 1909 F340 TB MOD CHOP RM B738 OV JOT SAME AT FL320
IND UA /OV IKK090020/TM 1858/FL340/TP A320/TB CONT LGT OCNL MOD
ORD UA /OV CGT/TM 1858/FL390/TP B752/TB CONT LGT CHOP
IND UA /OV OXI310015/TM 1851/FL060/TP BE36/TB MOD CHOP
ARP UAL1640 4154N 08652W 1810 F390 248/071 TB LGT SK CLEAR IC NONE RM B752 OV 4154N 08652W FL390 SMOOTH

Connect with us on Facebook!

Facebook By Weblizar Powered By Weblizar